createdAt,value
2018-05-26T00:00:29.082Z,24.70
2018-05-26T00:01:29.083Z,25.40
2018-05-26T00:02:28.943Z,30.40
2018-05-26T00:03:28.809Z,28.40
2018-05-26T00:04:28.714Z,27.00
2018-05-26T00:05:28.627Z,43.40
2018-05-26T00:06:28.535Z,47.20
2018-05-26T00:07:28.445Z,91.90
2018-05-26T00:08:28.471Z,129.60
2018-05-26T00:09:28.260Z,72.70
2018-05-26T00:10:28.176Z,108.20
2018-05-26T00:11:28.075Z,57.90
2018-05-26T00:12:28.002Z,102.10
2018-05-26T00:13:27.929Z,92.10
2018-05-26T00:14:27.804Z,55.90
2018-05-26T00:15:27.806Z,42.30
2018-05-26T00:16:27.619Z,55.10
2018-05-26T00:17:27.532Z,62.20
2018-05-26T00:18:27.442Z,53.40
2018-05-26T00:19:27.380Z,49.30
2018-05-26T00:20:27.256Z,52.00
2018-05-26T00:21:27.168Z,52.60
2018-05-26T00:22:27.171Z,73.20
2018-05-26T00:23:26.985Z,49.50
2018-05-26T00:24:26.922Z,51.70
2018-05-26T00:25:26.815Z,54.50
2018-05-26T00:26:26.708Z,45.10
2018-05-26T00:27:26.618Z,53.70
2018-05-26T00:28:26.525Z,52.90
2018-05-26T00:29:26.565Z,42.70
2018-05-26T00:30:26.342Z,46.40
2018-05-26T00:31:26.249Z,24.10
2018-05-26T00:32:26.195Z,34.50
2018-05-26T00:33:26.072Z,30.80
2018-05-26T00:34:26.013Z,38.70
2018-05-26T00:35:25.885Z,28.60
2018-05-26T00:36:25.892Z,35.40
2018-05-26T00:37:25.700Z,36.10
2018-05-26T00:38:25.614Z,23.80
2018-05-26T00:39:25.548Z,26.10
2018-05-26T00:40:25.430Z,31.60
2018-05-26T00:41:25.337Z,30.10
2018-05-26T00:42:25.245Z,21.30
2018-05-26T00:43:25.250Z,18.40
2018-05-26T00:44:25.071Z,21.60
2018-05-26T00:45:25.003Z,19.80
2018-05-26T00:46:24.880Z,19.90
2018-05-26T00:47:24.792Z,18.10
2018-05-26T00:48:24.695Z,17.00
2018-05-26T00:49:24.604Z,18.10
2018-05-26T00:50:24.610Z,18.20
2018-05-26T00:51:24.453Z,18.20
2018-05-26T00:52:24.330Z,16.80
2018-05-26T00:53:24.240Z,18.90
2018-05-26T00:54:24.148Z,18.40
2018-05-26T00:55:24.057Z,17.60
2018-05-26T00:56:23.996Z,17.00
2018-05-26T00:57:23.966Z,17.60
2018-05-26T00:58:23.779Z,22.00
2018-05-26T00:59:23.690Z,22.00
2018-05-26T01:00:23.599Z,20.40
2018-05-26T01:01:23.539Z,20.40
2018-05-26T01:02:23.416Z,18.90
2018-05-26T01:03:23.328Z,19.00
2018-05-26T01:04:23.320Z,17.80
2018-05-26T01:05:23.142Z,16.20
2018-05-26T01:06:23.081Z,15.90
2018-05-26T01:07:22.958Z,16.10
2018-05-26T01:08:22.872Z,15.30
2018-05-26T01:09:22.776Z,15.50
2018-05-26T01:10:22.683Z,15.60
2018-05-26T01:11:22.626Z,14.40
2018-05-26T01:12:22.502Z,13.80
2018-05-26T01:13:22.410Z,14.00
2018-05-26T01:14:22.319Z,15.80
2018-05-26T01:15:22.234Z,14.60
2018-05-26T01:16:22.137Z,15.60
2018-05-26T01:17:22.077Z,14.70
2018-05-26T01:18:22.047Z,14.20
2018-05-26T01:19:21.866Z,14.90
2018-05-26T01:20:21.773Z,15.70
2018-05-26T01:21:21.676Z,16.20
2018-05-26T01:22:21.620Z,15.00
2018-05-26T01:23:21.494Z,16.20
2018-05-26T01:24:21.404Z,17.00
2018-05-26T01:25:21.312Z,15.80
2018-05-26T01:26:21.221Z,15.30
2018-05-26T01:27:21.129Z,15.50
2018-05-26T01:28:21.068Z,15.20
2018-05-26T01:29:20.945Z,15.10
2018-05-26T01:30:20.854Z,14.40
2018-05-26T01:31:20.762Z,14.70
2018-05-26T01:32:20.673Z,13.90
2018-05-26T01:33:20.610Z,13.20
2018-05-26T01:34:20.486Z,12.80
2018-05-26T01:35:20.397Z,13.30
2018-05-26T01:36:20.323Z,12.20
2018-05-26T01:37:20.214Z,11.90
2018-05-26T01:38:20.149Z,11.80
2018-05-26T01:39:20.029Z,11.60
2018-05-26T01:40:19.942Z,11.90
2018-05-26T01:41:19.849Z,11.30
2018-05-26T01:42:19.754Z,11.20
2018-05-26T01:43:19.668Z,10.80
2018-05-26T01:44:19.606Z,9.60
2018-05-26T01:45:19.483Z,10.30
2018-05-26T01:46:19.391Z,9.70
2018-05-26T01:47:19.301Z,9.50
2018-05-26T01:48:19.210Z,9.10
2018-05-26T01:49:19.145Z,9.00
2018-05-26T01:50:19.027Z,8.70
2018-05-26T01:51:18.935Z,8.40
2018-05-26T01:52:18.844Z,8.70
2018-05-26T01:53:18.752Z,8.80
2018-05-26T01:54:18.698Z,8.50
2018-05-26T01:55:18.571Z,8.10
2018-05-26T01:56:18.476Z,8.30
2018-05-26T01:57:18.388Z,8.30
2018-05-26T01:58:18.293Z,8.10
2018-05-26T01:59:18.206Z,8.00
2018-05-26T02:00:18.147Z,7.70
2018-05-26T02:01:18.021Z,7.70
2018-05-26T02:02:17.930Z,7.70
2018-05-26T02:03:17.840Z,7.40
2018-05-26T02:04:17.748Z,7.90
2018-05-26T02:05:17.691Z,7.70
2018-05-26T02:06:17.567Z,7.90
2018-05-26T02:07:17.473Z,7.60
2018-05-26T02:08:17.386Z,7.60
2018-05-26T02:09:17.292Z,8.00
2018-05-26T02:10:17.239Z,7.60
2018-05-26T02:11:17.112Z,7.50
2018-05-26T02:12:17.020Z,8.20
2018-05-26T02:13:16.930Z,7.80
2018-05-26T02:14:16.841Z,7.30
2018-05-26T02:15:16.778Z,7.40
2018-05-26T02:16:16.655Z,7.70
2018-05-26T02:17:16.571Z,7.40
2018-05-26T02:18:16.473Z,7.40
2018-05-26T02:19:16.385Z,7.10
2018-05-26T02:20:16.293Z,7.10
2018-05-26T02:21:16.237Z,7.60
2018-05-26T02:22:16.113Z,7.40
2018-05-26T02:23:16.023Z,7.00
2018-05-26T02:24:15.931Z,7.40
2018-05-26T02:25:15.843Z,7.40
2018-05-26T02:26:15.754Z,7.00
2018-05-26T02:27:15.693Z,7.40
2018-05-26T02:28:15.586Z,7.20
2018-05-26T02:29:15.486Z,6.90
2018-05-26T02:30:15.393Z,6.90
2018-05-26T02:31:15.297Z,6.90
2018-05-26T02:32:15.238Z,7.50
2018-05-26T02:33:15.127Z,6.70
2018-05-26T02:34:15.026Z,7.10
2018-05-26T02:35:14.936Z,6.50
2018-05-26T02:36:14.845Z,7.00
2018-05-26T02:37:14.786Z,6.80
2018-05-26T02:38:14.678Z,7.20
2018-05-26T02:39:14.574Z,7.30
2018-05-26T02:40:14.483Z,7.30
2018-05-26T02:41:14.487Z,7.60
2018-05-26T02:42:14.329Z,7.90
2018-05-26T02:43:14.214Z,7.50
2018-05-26T02:44:14.120Z,7.60
2018-05-26T02:45:14.030Z,7.80
2018-05-26T02:46:13.939Z,7.70
2018-05-26T02:47:13.877Z,8.80
2018-05-26T02:48:13.854Z,8.70
2018-05-26T02:49:13.669Z,8.80
2018-05-26T02:50:13.573Z,9.20
2018-05-26T02:51:13.485Z,9.80
2018-05-26T02:52:13.393Z,10.00
2018-05-26T02:53:13.337Z,10.00
2018-05-26T02:54:13.211Z,11.20
2018-05-26T02:55:13.214Z,11.10
2018-05-26T02:56:13.032Z,10.50
2018-05-26T02:57:12.940Z,9.30
2018-05-26T02:58:12.875Z,9.60
2018-05-26T02:59:12.757Z,10.10
2018-05-26T03:00:12.666Z,9.70
2018-05-26T03:01:12.574Z,9.80
2018-05-26T03:02:12.578Z,9.70
2018-05-26T03:03:12.436Z,10.00
2018-05-26T03:04:12.304Z,10.60
2018-05-26T03:05:12.211Z,10.30
2018-05-26T03:06:12.120Z,9.70
2018-05-26T03:07:12.029Z,9.70
2018-05-26T03:08:11.938Z,9.60
2018-05-26T03:09:11.951Z,9.70
2018-05-26T03:10:11.755Z,9.40
2018-05-26T03:11:11.663Z,9.70
2018-05-26T03:12:11.569Z,8.80
2018-05-26T03:13:11.479Z,9.50
2018-05-26T03:14:11.420Z,9.50
2018-05-26T03:15:11.299Z,9.80
2018-05-26T03:16:11.302Z,10.30
2018-05-26T03:17:11.116Z,10.10
2018-05-26T03:18:11.020Z,9.70
2018-05-26T03:19:10.963Z,9.80
2018-05-26T03:20:10.843Z,10.60
2018-05-26T03:21:10.748Z,10.00
2018-05-26T03:22:10.654Z,10.70
2018-05-26T03:23:10.666Z,10.40
2018-05-26T03:24:10.506Z,10.30
2018-05-26T03:25:10.380Z,9.90
2018-05-26T03:26:10.289Z,9.80
2018-05-26T03:27:10.196Z,10.20
2018-05-26T03:28:10.105Z,9.80
2018-05-26T03:29:10.047Z,10.30
2018-05-26T03:30:09.937Z,10.60
2018-05-26T03:31:09.835Z,10.50
2018-05-26T03:32:09.738Z,9.90
2018-05-26T03:33:09.645Z,10.90
2018-05-26T03:34:09.587Z,10.90
2018-05-26T03:35:09.466Z,10.00
2018-05-26T03:36:09.373Z,10.60
2018-05-26T03:37:09.280Z,10.50
2018-05-26T03:38:09.190Z,9.80
2018-05-26T03:39:09.097Z,10.40
2018-05-26T03:40:09.034Z,9.10
2018-05-26T03:41:08.914Z,9.20
2018-05-26T03:42:08.823Z,8.80
2018-05-26T03:43:08.737Z,8.70
2018-05-26T03:44:08.645Z,8.70
2018-05-26T03:45:08.575Z,8.90
2018-05-26T03:46:08.453Z,8.70
2018-05-26T03:47:08.364Z,8.50
2018-05-26T03:48:08.272Z,8.70
2018-05-26T03:49:08.179Z,8.30
2018-05-26T03:50:08.095Z,8.20
2018-05-26T03:51:08.023Z,7.90
2018-05-26T03:52:08.026Z,8.10
2018-05-26T03:53:07.815Z,8.00
2018-05-26T03:54:07.720Z,8.10
2018-05-26T03:55:07.631Z,7.50
2018-05-26T03:56:07.575Z,7.50
2018-05-26T03:57:07.447Z,7.40
2018-05-26T03:58:07.363Z,7.40
2018-05-26T03:59:07.354Z,7.70
2018-05-26T04:00:07.171Z,7.90
2018-05-26T04:01:07.113Z,8.10
2018-05-26T04:02:06.991Z,7.80
2018-05-26T04:03:06.898Z,7.10
2018-05-26T04:04:06.809Z,7.30
2018-05-26T04:05:06.717Z,7.80
2018-05-26T04:06:06.803Z,7.90
2018-05-26T04:07:06.536Z,7.60
2018-05-26T04:08:06.444Z,7.60
2018-05-26T04:09:06.353Z,7.50
2018-05-26T04:10:06.263Z,7.50
2018-05-26T04:11:06.170Z,7.40
2018-05-26T04:12:06.222Z,7.10
2018-05-26T04:13:05.985Z,7.60
2018-05-26T04:14:05.898Z,7.60
2018-05-26T04:15:05.806Z,7.20
2018-05-26T04:16:05.718Z,6.90
2018-05-26T04:17:05.658Z,7.10
2018-05-26T04:18:05.534Z,7.00
2018-05-26T04:19:05.442Z,7.10
2018-05-26T04:20:05.448Z,6.80
2018-05-26T04:21:05.269Z,6.80
2018-05-26T04:22:05.172Z,6.60
2018-05-26T04:23:05.113Z,7.10
2018-05-26T04:24:04.990Z,6.40
2018-05-26T04:25:04.902Z,7.00
2018-05-26T04:26:04.809Z,6.70
2018-05-26T04:27:04.720Z,6.50
2018-05-26T04:28:04.631Z,6.90
2018-05-26T04:29:04.574Z,6.50
2018-05-26T04:30:04.449Z,7.10
2018-05-26T04:31:04.358Z,6.60
2018-05-26T04:32:04.271Z,6.80
2018-05-26T04:33:04.181Z,6.90
2018-05-26T04:34:04.118Z,6.50
2018-05-26T04:35:04.001Z,7.30
2018-05-26T04:36:03.915Z,6.80
2018-05-26T04:37:03.823Z,6.90
2018-05-26T04:38:03.726Z,6.60
2018-05-26T04:39:03.670Z,6.50
2018-05-26T04:40:03.550Z,6.80
2018-05-26T04:41:03.460Z,6.70
2018-05-26T04:42:03.370Z,6.50
2018-05-26T04:43:03.287Z,6.10
2018-05-26T04:44:03.192Z,6.90
2018-05-26T04:45:03.137Z,6.90
2018-05-26T04:46:03.009Z,6.60
2018-05-26T04:47:02.920Z,6.60
2018-05-26T04:48:02.832Z,6.90
2018-05-26T04:49:02.743Z,6.80
2018-05-26T04:50:02.652Z,6.60
2018-05-26T04:51:02.599Z,7.00
2018-05-26T04:52:02.473Z,6.30
2018-05-26T04:53:02.402Z,7.00
2018-05-26T04:54:02.295Z,6.50
2018-05-26T04:55:02.208Z,6.50
2018-05-26T04:56:02.149Z,6.40
2018-05-26T04:57:02.029Z,6.40
2018-05-26T04:58:01.937Z,6.90
2018-05-26T04:59:01.850Z,6.40
2018-05-26T05:00:01.761Z,7.10
2018-05-26T05:01:01.705Z,7.20
2018-05-26T05:02:01.604Z,6.90
2018-05-26T05:03:01.498Z,6.30
2018-05-26T05:04:01.405Z,6.60
2018-05-26T05:05:01.317Z,6.80
2018-05-26T05:06:01.257Z,6.90
2018-05-26T05:07:01.139Z,6.50
2018-05-26T05:08:01.052Z,6.90
2018-05-26T05:09:00.960Z,6.40
2018-05-26T05:10:00.872Z,6.50
2018-05-26T05:11:00.834Z,6.60
2018-05-26T05:12:00.697Z,6.70
2018-05-26T05:13:00.608Z,6.20
2018-05-26T05:14:00.527Z,6.10
2018-05-26T05:15:00.428Z,6.10
2018-05-26T05:16:00.341Z,6.50
2018-05-26T05:17:00.289Z,6.10
2018-05-26T05:18:00.163Z,6.40
2018-05-26T05:19:00.078Z,6.40
2018-05-26T05:19:59.990Z,6.20
2018-05-26T05:20:59.903Z,6.40
2018-05-26T05:21:59.812Z,6.30
2018-05-26T05:22:59.756Z,6.60
2018-05-26T05:23:59.635Z,6.40
2018-05-26T05:24:59.552Z,6.30
2018-05-26T05:25:59.460Z,6.60
2018-05-26T05:26:59.372Z,6.80
2018-05-26T05:27:59.316Z,6.60
2018-05-26T05:28:59.194Z,6.20
2018-05-26T05:29:59.110Z,6.40
2018-05-26T05:30:59.019Z,6.30
2018-05-26T05:31:58.933Z,7.00
2018-05-26T05:32:58.874Z,6.40
2018-05-26T05:33:58.756Z,6.00
2018-05-26T05:34:58.666Z,5.90
2018-05-26T05:35:58.600Z,6.20
2018-05-26T05:36:58.492Z,6.30
2018-05-26T05:37:58.434Z,6.50
2018-05-26T05:38:58.313Z,6.30
2018-05-26T05:39:58.226Z,6.10
2018-05-26T05:40:58.139Z,6.50
2018-05-26T05:41:58.051Z,6.10
2018-05-26T05:42:58.093Z,6.00
2018-05-26T05:43:57.878Z,6.10
2018-05-26T05:44:57.790Z,6.10
2018-05-26T05:45:57.729Z,6.00
2018-05-26T05:46:57.610Z,6.40
2018-05-26T05:47:57.563Z,6.00
2018-05-26T05:48:57.439Z,5.90
2018-05-26T05:49:57.443Z,6.90
2018-05-26T05:50:57.263Z,5.60
2018-05-26T05:51:57.180Z,5.90
2018-05-26T05:52:57.119Z,5.90
2018-05-26T05:53:57.000Z,6.50
2018-05-26T05:54:56.919Z,6.20
2018-05-26T05:55:56.828Z,6.60
2018-05-26T05:56:56.738Z,6.90
2018-05-26T05:57:56.683Z,6.30
2018-05-26T05:58:56.566Z,6.40
2018-05-26T05:59:56.479Z,6.20
2018-05-26T06:00:56.393Z,6.70
2018-05-26T06:01:56.301Z,6.50
2018-05-26T06:02:56.245Z,6.30
2018-05-26T06:03:56.129Z,6.60
2018-05-26T06:04:56.045Z,6.70
2018-05-26T06:05:55.965Z,6.80
2018-05-26T06:06:55.869Z,6.40
2018-05-26T06:07:55.811Z,6.40
2018-05-26T06:08:55.694Z,6.50
2018-05-26T06:09:55.608Z,6.20
2018-05-26T06:10:55.517Z,6.20
2018-05-26T06:11:55.431Z,6.50
2018-05-26T06:12:55.375Z,6.50
2018-05-26T06:13:55.258Z,6.50
2018-05-26T06:14:55.180Z,6.40
2018-05-26T06:15:55.080Z,6.10
2018-05-26T06:16:54.995Z,6.30
2018-05-26T06:17:54.939Z,6.10
2018-05-26T06:18:54.823Z,6.00
2018-05-26T06:19:54.734Z,6.20
2018-05-26T06:20:54.648Z,5.70
2018-05-26T06:21:54.559Z,6.40
2018-05-26T06:22:54.480Z,5.80
2018-05-26T06:23:54.418Z,6.20
2018-05-26T06:24:54.302Z,6.10
2018-05-26T06:25:54.216Z,5.80
2018-05-26T06:26:54.126Z,6.20
2018-05-26T06:27:56.923Z,6.00
2018-05-26T06:28:54.045Z,5.50
2018-05-26T06:29:53.868Z,5.60
2018-05-26T06:30:53.779Z,5.70
2018-05-26T06:31:53.690Z,5.90
2018-05-26T06:32:53.605Z,6.00
2018-05-26T06:33:53.549Z,5.90
2018-05-26T06:34:53.436Z,5.60
2018-05-26T06:35:53.370Z,5.70
2018-05-26T06:36:53.258Z,5.60
2018-05-26T06:37:53.171Z,5.40
2018-05-26T06:38:53.125Z,5.80
2018-05-26T06:39:52.998Z,5.60
2018-05-26T06:40:52.926Z,5.60
2018-05-26T06:41:52.824Z,5.40
2018-05-26T06:42:52.739Z,5.20
2018-05-26T06:43:52.685Z,5.50
2018-05-26T06:44:52.664Z,5.20
2018-05-26T06:45:52.480Z,4.60
2018-05-26T06:46:52.398Z,4.90
2018-05-26T06:47:52.311Z,5.20
2018-05-26T06:48:52.256Z,5.00
2018-05-26T06:49:52.141Z,5.40
2018-05-26T06:50:52.056Z,4.70
2018-05-26T06:51:52.085Z,4.50
2018-05-26T06:52:51.886Z,4.80
2018-05-26T06:53:51.831Z,4.60
2018-05-26T06:54:51.719Z,4.70
2018-05-26T06:55:51.633Z,4.90
2018-05-26T06:56:51.552Z,4.50
2018-05-26T06:57:51.467Z,4.70
2018-05-26T06:58:51.508Z,4.60
2018-05-26T06:59:51.306Z,4.40
2018-05-26T07:00:51.220Z,4.80
2018-05-26T07:01:51.136Z,4.50
2018-05-26T07:02:51.054Z,4.40
2018-05-26T07:03:51.001Z,4.70
2018-05-26T07:04:50.894Z,4.80
2018-05-26T07:05:50.903Z,4.20
2018-05-26T07:06:50.727Z,4.20
2018-05-26T07:07:50.647Z,4.30
2018-05-26T07:08:50.593Z,4.40
2018-05-26T07:09:50.482Z,4.40
2018-05-26T07:10:50.416Z,4.40
2018-05-26T07:11:50.319Z,4.10
2018-05-26T07:12:50.240Z,4.10
2018-05-26T07:13:50.189Z,4.20
2018-05-26T07:14:50.217Z,4.30
2018-05-26T07:15:49.995Z,4.50
2018-05-26T07:16:49.917Z,4.10
2018-05-26T07:17:49.842Z,4.40
2018-05-26T07:18:49.880Z,4.40
2018-05-26T07:19:49.674Z,4.00
2018-05-26T07:20:49.597Z,4.10
2018-05-26T07:21:49.513Z,4.00
2018-05-26T07:22:49.433Z,3.90
2018-05-26T07:23:49.384Z,4.30
2018-05-26T07:24:49.385Z,3.90
2018-05-26T07:25:49.197Z,4.10
2018-05-26T07:26:49.119Z,4.20
2018-05-26T07:27:49.049Z,4.10
2018-05-26T07:28:48.960Z,4.20
2018-05-26T07:29:48.906Z,3.80
2018-05-26T07:30:48.798Z,4.30
2018-05-26T07:31:48.809Z,4.20
2018-05-26T07:32:48.646Z,4.20
2018-05-26T07:33:48.614Z,3.60
2018-05-26T07:34:48.512Z,3.70
2018-05-26T07:35:48.403Z,3.60
2018-05-26T07:36:48.322Z,3.80
2018-05-26T07:37:48.243Z,3.80
2018-05-26T07:38:48.167Z,4.10
2018-05-26T07:39:48.118Z,4.30
2018-05-26T07:40:48.007Z,3.70
2018-05-26T07:41:47.933Z,3.90
2018-05-26T07:42:47.848Z,3.90
2018-05-26T07:43:47.770Z,3.90
2018-05-26T07:44:47.724Z,4.00
2018-05-26T07:45:47.614Z,4.00
2018-05-26T07:46:47.533Z,4.10
2018-05-26T07:47:47.453Z,4.40
2018-05-26T07:48:47.377Z,4.10
2018-05-26T07:49:47.328Z,3.90
2018-05-26T07:50:47.224Z,4.00
2018-05-26T07:51:47.139Z,3.70
2018-05-26T07:52:47.062Z,4.20
2018-05-26T07:53:46.981Z,3.90
2018-05-26T07:54:46.936Z,4.20
2018-05-26T07:55:46.871Z,3.90
2018-05-26T07:56:46.743Z,4.00
2018-05-26T07:57:46.670Z,3.70
2018-05-26T07:58:46.584Z,3.90
2018-05-26T07:59:46.537Z,4.00
2018-05-26T08:00:46.431Z,3.80
2018-05-26T08:01:46.350Z,3.70
2018-05-26T08:02:46.272Z,4.20
2018-05-26T08:03:46.193Z,3.80
2018-05-26T08:04:46.146Z,4.10
2018-05-26T08:05:46.035Z,11.10
2018-05-26T08:06:45.955Z,3.80
2018-05-26T08:07:45.880Z,3.60
2018-05-26T08:08:45.798Z,3.80
2018-05-26T08:09:45.761Z,4.20
2018-05-26T08:10:45.642Z,4.00
2018-05-26T08:11:45.565Z,4.00
2018-05-26T08:12:46.336Z,4.10
2018-05-26T08:15:16.885Z,4.10
2018-05-26T08:16:16.773Z,3.70
2018-05-26T08:17:16.744Z,3.80
2018-05-26T08:18:16.620Z,3.70
2018-05-26T08:19:17.531Z,3.60
2018-05-26T08:20:16.492Z,3.80
2018-05-26T08:21:16.383Z,3.60
2018-05-26T08:22:16.305Z,3.90
2018-05-26T08:23:16.225Z,3.60
2018-05-26T08:24:16.150Z,3.70
2018-05-26T08:25:16.100Z,3.90
2018-05-26T08:26:15.992Z,3.80
2018-05-26T08:27:15.967Z,3.40
2018-05-26T08:28:15.842Z,3.60
2018-05-26T08:29:15.766Z,3.80
2018-05-26T08:30:15.716Z,3.70
2018-05-26T08:31:15.602Z,3.50
2018-05-26T08:32:15.527Z,3.40
2018-05-26T08:33:15.448Z,3.70
2018-05-26T08:34:15.367Z,3.40
2018-05-26T08:35:15.323Z,3.50
2018-05-26T08:36:15.213Z,3.50
2018-05-26T08:37:15.134Z,3.60
2018-05-26T08:38:15.059Z,3.90
2018-05-26T08:39:15.482Z,3.70
2018-05-26T08:40:14.934Z,3.80
2018-05-26T08:41:15.588Z,3.50
2018-05-26T08:42:14.748Z,4.00
2018-05-26T08:43:14.667Z,3.80
2018-05-26T08:44:14.590Z,3.70
2018-05-26T08:45:14.546Z,4.10
2018-05-26T08:46:14.435Z,3.80
2018-05-26T08:47:14.355Z,3.70
2018-05-26T08:48:14.276Z,3.10
2018-05-26T08:49:14.201Z,2.90
2018-05-26T08:50:14.153Z,3.10
2018-05-26T08:51:14.052Z,3.20
2018-05-26T08:52:14.987Z,3.00
2018-05-26T08:53:13.888Z,3.40
2018-05-26T08:54:13.832Z,2.80
2018-05-26T08:55:13.764Z,2.60
2018-05-26T08:56:15.488Z,3.10
2018-05-26T08:57:13.578Z,3.30
2018-05-26T08:58:13.499Z,3.00
2018-05-26T08:59:13.420Z,2.80
2018-05-26T09:00:13.372Z,2.90
2018-05-26T09:01:13.267Z,2.70
2018-05-26T09:02:13.191Z,2.70
2018-05-26T09:03:13.108Z,3.10
2018-05-26T09:04:13.029Z,2.90
2018-05-26T09:05:12.984Z,2.90
2018-05-26T09:06:12.889Z,3.20
2018-05-26T09:07:12.802Z,3.10
2018-05-26T09:08:12.722Z,2.60
2018-05-26T09:09:12.645Z,3.20
2018-05-26T09:10:12.572Z,3.30
2018-05-26T09:11:12.544Z,3.00
2018-05-26T09:12:12.419Z,2.70
2018-05-26T09:13:12.340Z,2.50
2018-05-26T09:14:12.262Z,2.50
2018-05-26T09:15:12.192Z,2.80
2018-05-26T09:16:12.146Z,2.60
2018-05-26T09:17:12.042Z,2.90
2018-05-26T09:18:11.965Z,2.80
2018-05-26T09:19:11.882Z,2.70
2018-05-26T09:20:11.820Z,2.60
2018-05-26T09:21:11.758Z,2.50
2018-05-26T09:22:11.654Z,2.40
2018-05-26T09:23:11.574Z,2.20
2018-05-26T09:24:11.501Z,2.90
2018-05-26T09:25:11.467Z,2.70
2018-05-26T09:26:11.381Z,2.80
2018-05-26T09:27:11.268Z,2.80
2018-05-26T09:28:11.195Z,4.90
2018-05-26T09:29:11.209Z,2.90
2018-05-26T09:30:11.086Z,2.70
2018-05-26T09:31:10.995Z,3.10
2018-05-26T09:32:10.889Z,2.90
2018-05-26T09:33:10.811Z,3.20
2018-05-26T09:34:10.733Z,3.10
2018-05-26T09:35:10.658Z,3.10
2018-05-26T09:36:10.618Z,3.20
2018-05-26T09:37:10.506Z,2.90
2018-05-26T09:38:10.435Z,3.20
2018-05-26T09:39:10.356Z,2.80
2018-05-26T09:40:10.292Z,3.00
2018-05-26T09:41:10.236Z,2.90
2018-05-26T09:42:10.126Z,2.60
2018-05-26T09:43:10.143Z,2.90
2018-05-26T09:44:09.979Z,2.80
2018-05-26T09:45:09.899Z,2.90
2018-05-26T09:46:09.858Z,3.00
2018-05-26T09:47:09.749Z,2.90
2018-05-26T09:48:09.673Z,2.90
2018-05-26T09:49:09.599Z,2.60
2018-05-26T09:50:09.618Z,3.00
2018-05-26T09:51:09.478Z,3.00
2018-05-26T09:52:09.372Z,2.70
2018-05-26T09:53:09.300Z,3.00
2018-05-26T09:54:09.226Z,3.20
2018-05-26T09:55:09.150Z,3.20
2018-05-26T09:56:10.072Z,3.30
2018-05-26T09:57:09.090Z,3.10
2018-05-26T09:58:08.923Z,3.00
2018-05-26T09:59:08.843Z,3.20
2018-05-26T10:00:08.768Z,3.30
2018-05-26T10:01:08.725Z,3.40
2018-05-26T10:02:08.619Z,3.40
2018-05-26T10:03:08.539Z,3.30
2018-05-26T10:04:08.561Z,3.10
2018-05-26T10:05:08.392Z,3.50
2018-05-26T10:06:08.343Z,3.30
2018-05-26T10:07:08.233Z,3.00
2018-05-26T10:08:08.176Z,2.80
2018-05-26T10:09:08.082Z,2.80
2018-05-26T10:10:08.006Z,3.00
2018-05-26T10:11:08.057Z,3.10
2018-05-26T10:12:07.856Z,2.90
2018-05-26T10:13:07.779Z,2.80
2018-05-26T10:14:07.704Z,2.70
2018-05-26T10:15:07.628Z,2.70
2018-05-26T10:16:07.552Z,3.00
2018-05-26T10:17:07.512Z,2.60
2018-05-26T10:18:07.495Z,2.90
2018-05-26T10:19:07.326Z,2.90
2018-05-26T10:20:07.251Z,2.50
2018-05-26T10:21:07.176Z,3.30
2018-05-26T10:22:07.181Z,2.80
2018-05-26T10:23:07.025Z,2.70
2018-05-26T10:24:06.952Z,3.00
2018-05-26T10:25:06.873Z,2.80
2018-05-26T10:26:06.802Z,3.10
2018-05-26T10:27:06.754Z,3.20
2018-05-26T10:28:06.648Z,2.90
2018-05-26T10:29:06.573Z,2.80
2018-05-26T10:30:06.562Z,2.50
2018-05-26T10:31:06.420Z,2.70
2018-05-26T10:32:06.470Z,2.60
2018-05-26T10:33:06.287Z,2.60
2018-05-26T10:34:06.195Z,2.50
2018-05-26T10:35:06.123Z,2.70
2018-05-26T10:36:06.044Z,2.40
2018-05-26T10:37:05.999Z,2.60
2018-05-26T10:38:05.955Z,2.70
2018-05-26T10:39:05.908Z,2.50
2018-05-26T10:40:05.750Z,2.90
2018-05-26T10:41:05.671Z,2.50
2018-05-26T10:42:06.585Z,2.40
2018-05-26T10:43:05.527Z,2.70
2018-05-26T10:44:05.448Z,2.80
2018-05-26T10:45:05.370Z,2.70
2018-05-26T10:46:05.396Z,2.40
2018-05-26T10:47:05.278Z,2.50
2018-05-26T10:48:05.146Z,2.40
2018-05-26T10:49:05.071Z,2.50
2018-05-26T10:50:05.028Z,2.50
2018-05-26T10:51:04.922Z,2.30
2018-05-26T10:52:04.970Z,2.40
2018-05-26T10:53:04.823Z,2.70
2018-05-26T10:54:04.700Z,2.80
2018-05-26T10:55:04.624Z,2.40
2018-05-26T10:56:04.553Z,2.50
2018-05-26T10:57:04.507Z,2.30
2018-05-26T10:58:04.402Z,2.40
2018-05-26T10:59:04.325Z,2.30
2018-05-26T11:00:04.254Z,2.40
2018-05-26T11:01:04.180Z,2.30
2018-05-26T11:02:04.137Z,2.30
2018-05-26T11:03:04.028Z,2.40
2018-05-26T11:04:03.967Z,2.40
2018-05-26T11:05:03.887Z,2.50
2018-05-26T11:06:03.810Z,2.30
2018-05-26T11:07:03.761Z,2.50
2018-05-26T11:08:03.658Z,2.40
2018-05-26T11:09:03.583Z,2.60
2018-05-26T11:10:03.510Z,2.50
2018-05-26T11:11:03.434Z,2.30
2018-05-26T11:12:03.391Z,2.40
2018-05-26T11:13:03.286Z,2.30
2018-05-26T11:14:03.216Z,2.20
2018-05-26T11:15:03.139Z,2.60
2018-05-26T11:16:03.081Z,2.20
2018-05-26T11:17:03.058Z,2.40
2018-05-26T11:18:03.004Z,2.40
2018-05-26T11:19:02.876Z,2.40
2018-05-26T11:20:02.767Z,2.50
2018-05-26T11:21:02.695Z,2.80
2018-05-26T11:22:02.625Z,2.50
2018-05-26T11:23:02.580Z,2.60
2018-05-26T11:24:02.625Z,2.40
2018-05-26T11:25:02.398Z,2.70
2018-05-26T11:26:02.347Z,2.80
2018-05-26T11:27:02.250Z,2.40
2018-05-26T11:28:02.205Z,2.50
2018-05-26T11:29:02.100Z,2.80
2018-05-26T11:30:02.557Z,2.60
2018-05-26T11:31:01.956Z,2.80
2018-05-26T11:32:01.878Z,3.20
2018-05-26T11:33:01.829Z,3.00
2018-05-26T11:34:01.729Z,3.00
2018-05-26T11:35:03.559Z,3.10
2018-05-26T11:36:01.571Z,3.20
2018-05-26T11:37:01.499Z,3.20
2018-05-26T11:38:01.455Z,3.70
2018-05-26T11:39:01.346Z,3.80
2018-05-26T11:40:01.270Z,3.30
2018-05-26T11:41:01.197Z,3.50
2018-05-26T11:42:01.121Z,3.20
2018-05-26T11:43:01.077Z,3.20
2018-05-26T11:44:00.967Z,3.30
2018-05-26T11:45:00.889Z,3.30
2018-05-26T11:46:00.814Z,3.10
2018-05-26T11:47:00.744Z,3.20
2018-05-26T11:48:00.699Z,3.50
2018-05-26T11:49:00.587Z,3.20
2018-05-26T11:50:00.512Z,3.20
2018-05-26T11:51:00.434Z,3.20
2018-05-26T11:52:00.359Z,3.10
2018-05-26T11:53:00.312Z,3.50
2018-05-26T11:54:00.206Z,2.70
2018-05-26T11:55:00.132Z,2.90
2018-05-26T11:56:00.050Z,2.80
2018-05-26T11:56:59.974Z,3.20
2018-05-26T11:57:59.929Z,3.30
2018-05-26T11:59:00.607Z,3.30
2018-05-26T11:59:59.740Z,2.90
2018-05-26T12:00:59.667Z,3.30
2018-05-26T12:01:59.621Z,2.90
2018-05-26T12:02:59.541Z,3.20
2018-05-26T12:03:59.433Z,3.00
2018-05-26T12:05:00.069Z,3.10
2018-05-26T12:05:59.279Z,3.60
2018-05-26T12:06:59.198Z,3.20
2018-05-26T12:07:59.152Z,2.90
2018-05-26T12:08:59.193Z,3.10
2018-05-26T12:09:58.971Z,3.10
2018-05-26T12:10:58.884Z,3.10
2018-05-26T12:11:59.571Z,3.30
2018-05-26T12:12:58.759Z,3.10
2018-05-26T12:13:58.651Z,3.40
2018-05-26T12:14:58.570Z,3.40
2018-05-26T12:15:58.593Z,3.40
2018-05-26T12:16:58.416Z,3.50
2018-05-26T12:17:58.370Z,3.70
2018-05-26T12:18:58.275Z,3.40
2018-05-26T12:19:58.177Z,3.50
2018-05-26T12:20:58.098Z,3.70
2018-05-26T12:21:58.020Z,3.20
2018-05-26T12:22:57.944Z,3.60
2018-05-26T12:23:57.904Z,3.50
2018-05-26T12:24:57.783Z,3.30
2018-05-26T12:25:57.706Z,3.50
2018-05-26T12:26:57.676Z,3.90
2018-05-26T12:27:57.548Z,3.60
2018-05-26T12:28:57.494Z,3.60
2018-05-26T12:29:58.135Z,3.90
2018-05-26T12:30:57.307Z,3.70
2018-05-26T12:31:57.226Z,3.70
2018-05-26T12:32:57.147Z,3.60
2018-05-26T12:33:57.099Z,3.90
2018-05-26T12:34:56.986Z,3.60
2018-05-26T12:35:57.042Z,3.50
2018-05-26T12:36:56.827Z,3.50
2018-05-26T12:37:56.757Z,3.60
2018-05-26T12:38:56.699Z,3.80
2018-05-26T12:39:56.587Z,3.50
2018-05-26T12:40:56.508Z,3.60
2018-05-26T12:41:56.430Z,3.40
2018-05-26T12:42:56.354Z,3.60
2018-05-26T12:43:56.300Z,3.40
2018-05-26T12:44:56.192Z,3.50
2018-05-26T12:45:56.116Z,3.30
2018-05-26T12:46:56.035Z,3.30
2018-05-26T12:47:55.959Z,3.10
2018-05-26T12:48:57.634Z,3.50
2018-05-26T12:49:55.800Z,3.50
2018-05-26T12:50:55.723Z,3.30
2018-05-26T12:51:55.647Z,3.30
2018-05-26T12:52:55.572Z,3.20
2018-05-26T12:53:55.521Z,3.40
2018-05-26T12:54:55.414Z,3.40
2018-05-26T12:55:55.336Z,3.40
2018-05-26T12:56:55.261Z,3.10
2018-05-26T12:57:55.183Z,3.50
2018-05-26T12:58:55.136Z,3.30
2018-05-26T12:59:55.036Z,3.10
2018-05-26T13:00:54.951Z,3.20
2018-05-26T13:01:54.875Z,3.20
2018-05-26T13:02:54.797Z,3.50
2018-05-26T13:03:54.754Z,3.10
2018-05-26T13:04:54.644Z,3.10
2018-05-26T13:05:54.564Z,3.40
2018-05-26T13:06:54.488Z,3.50
2018-05-26T13:07:54.412Z,3.60
2018-05-26T13:08:54.362Z,3.60
2018-05-26T13:09:55.150Z,3.70
2018-05-26T13:10:54.175Z,3.50
2018-05-26T13:11:54.101Z,3.50
2018-05-26T13:12:54.022Z,3.10
2018-05-26T13:13:53.975Z,3.00